Time;durP1;ratioP1;P1;durP2;ratioP2;P2;SDS_P1;SDS_P2;PMS_P1;PMS_P2;Temp;Humidity;BMP_temperature;BMP_pressure;BME280_temperature;BME280_humidity;BME280_pressure;Samples;Min_cycle;Max_cycle;Signal;HPM_P1;HPM_P2
2023/06/27 00:00:12;;;;;;;;;;;;;;;19.20;58.52;101910.94;5238570;28;19935;-68
2023/06/27 00:02:46;;;;;;;;;;;;;;;19.18;59.95;101911.09;5237608;28;19921;-67
2023/06/27 00:05:17;;;;;;;;;;;;;;;19.17;58.55;101914.78;5238964;28;20322;-68
2023/06/27 00:07:48;;;;;;;;;;;;;;;19.17;57.65;101911.28;5238719;28;19928;-67
2023/06/27 00:10:19;;;;;;;;;;;;;;;19.13;60.23;101910.78;5235358;28;19956;-67
2023/06/27 00:12:52;;;;;;;;;;;;;;;19.13;58.10;101910.78;5240074;28;19913;-68
2023/06/27 00:15:24;;;;;;;;;;;;;;;19.12;59.78;101911.75;5237387;28;19955;-67
2023/06/27 00:17:55;;;;;;;;;;;;;;;19.09;59.83;101900.59;5238451;28;19917;-68
2023/06/27 00:20:27;;;;;;;;;;;;;;;19.06;60.26;101908.91;5240058;28;19916;-67
2023/06/27 00:23:16;;;;;;;;;;;;;;;19.05;59.23;101910.72;5241877;28;19917;-68
2023/06/27 00:25:47;;;;;;;;;;;;;;;19.04;58.92;101906.41;5241120;28;19913;-68
2023/06/27 00:28:18;;;;;;;;;;;;;;;19.02;59.60;101907.56;5239305;28;19921;-68
2023/06/27 00:30:49;;;;;;;;;;;;;;;19.02;59.84;101912.88;5237573;28;19909;-68
2023/06/27 00:33:20;;;;;;;;;;;;;;;19.03;60.05;101909.22;5239574;28;20389;-69
2023/06/27 00:35:52;;;;;;;;;;;;;;;19.02;59.75;101907.56;5238144;28;20277;-68
2023/06/27 00:38:23;;;;;;;;;;;;;;;18.99;62.98;101905.22;5234878;28;20395;-68
2023/06/27 00:40:54;;;;;;;;;;;;;;;18.97;60.78;101905.38;5240428;28;19913;-68
2023/06/27 00:43:29;;;;;;;;;;;;;;;18.94;60.41;101897.72;5239188;28;20206;-68
2023/06/27 00:46:02;;;;;;;;;;;;;;;18.94;63.11;101898.56;5234884;28;19924;-67
2023/06/27 00:48:33;;;;;;;;;;;;;;;18.90;63.14;101904.34;5236994;28;20323;-68
2023/06/27 00:51:06;;;;;;;;;;;;;;;18.87;60.71;101910.81;5234188;28;20019;-68
2023/06/27 00:53:37;;;;;;;;;;;;;;;18.87;64.03;101912.66;5235922;28;19976;-68
2023/06/27 00:56:08;;;;;;;;;;;;;;;18.84;59.75;101908.47;5236005;28;19944;-66
2023/06/27 00:58:40;;;;;;;;;;;;;;;18.83;62.70;101909.47;5241309;28;19930;-68
2023/06/27 01:01:11;;;;;;;;;;;;;;;18.82;61.24;101913.09;5238670;28;19909;-67
2023/06/27 01:03:42;;;;;;;;;;;;;;;18.77;62.97;101902.13;5234539;28;19964;-68
2023/06/27 01:06:36;;;;;;;;;;;;;;;18.77;62.98;101911.91;5240156;28;20397;-69
2023/06/27 01:09:31;;;;;;;;;;;;;;;18.78;62.69;101908.28;5243445;28;19921;-69
2023/06/27 01:12:09;;;;;;;;;;;;;;;18.76;63.04;101915.56;5236596;28;19916;-68
2023/06/27 01:14:43;;;;;;;;;;;;;;;18.75;64.29;101913.88;5236252;28;20378;-69
2023/06/27 01:17:16;;;;;;;;;;;;;;;18.73;62.86;101911.41;5240848;28;20290;-68
2023/06/27 01:19:52;;;;;;;;;;;;;;;18.71;63.90;101908.91;5236066;28;19956;-68
2023/06/27 01:22:29;;;;;;;;;;;;;;;18.70;63.00;101912.53;5239670;28;19920;-68
2023/06/27 01:25:01;;;;;;;;;;;;;;;18.68;61.43;101911.03;5237861;28;19943;-66
2023/06/27 01:27:33;;;;;;;;;;;;;;;18.65;61.37;101909.50;5237627;28;19925;-66
2023/06/27 01:30:04;;;;;;;;;;;;;;;18.63;62.95;101914.13;5239727;28;19919;-67
2023/06/27 01:32:53;;;;;;;;;;;;;;;18.63;62.21;101910.63;5238024;28;19913;-67
2023/06/27 01:35:31;;;;;;;;;;;;;;;18.61;62.65;101909.97;5236950;28;20109;-67
2023/06/27 01:38:06;;;;;;;;;;;;;;;18.58;63.75;101904.97;5230374;28;19916;-67
2023/06/27 01:40:37;;;;;;;;;;;;;;;18.57;63.75;101914.75;5239075;28;19975;-67
2023/06/27 01:43:10;;;;;;;;;;;;;;;18.54;64.84;101907.09;5242285;28;20003;-67
2023/06/27 01:45:42;;;;;;;;;;;;;;;18.53;63.73;101908.09;5237117;28;19917;-67
2023/06/27 01:48:14;;;;;;;;;;;;;;;18.53;64.26;101909.94;5234662;28;19921;-68
2023/06/27 01:50:45;;;;;;;;;;;;;;;18.51;64.32;101903.94;5237113;28;20401;-67
2023/06/27 01:53:17;;;;;;;;;;;;;;;18.52;63.00;101906.41;5242588;28;19923;-67
2023/06/27 01:55:48;;;;;;;;;;;;;;;18.51;65.03;101899.47;5238860;28;19920;-67
2023/06/27 01:58:19;;;;;;;;;;;;;;;18.51;65.43;101909.25;5235046;28;19913;-67
2023/06/27 02:00:50;;;;;;;;;;;;;;;18.51;66.56;101898.63;5236335;28;19969;-68
2023/06/27 02:03:22;;;;;;;;;;;;;;;18.51;64.20;101906.59;5232786;28;19920;-68
2023/06/27 02:05:53;;;;;;;;;;;;;;;18.48;65.01;101902.41;5241308;28;19916;-68
2023/06/27 02:08:24;;;;;;;;;;;;;;;18.46;65.63;101891.97;5238275;28;19946;-68
2023/06/27 02:10:55;;;;;;;;;;;;;;;18.46;65.49;101899.94;5232143;28;19917;-68
2023/06/27 02:13:26;;;;;;;;;;;;;;;18.46;66.15;101901.75;5242572;28;19969;-69
2023/06/27 02:15:58;;;;;;;;;;;;;;;18.45;64.96;101898.28;5236960;28;20304;-68
2023/06/27 02:18:29;;;;;;;;;;;;;;;18.46;66.97;101893.78;5233308;28;20203;-68
2023/06/27 02:21:00;;;;;;;;;;;;;;;18.43;66.37;101894.94;5234235;28;19917;-68
2023/06/27 02:23:31;;;;;;;;;;;;;;;18.43;66.85;101888.78;5246743;28;20240;-68
2023/06/27 02:26:03;;;;;;;;;;;;;;;18.42;69.65;101889.78;5239452;28;19962;-68
2023/06/27 02:28:34;;;;;;;;;;;;;;;18.40;66.07;101897.06;5240424;28;19916;-68
2023/06/27 02:31:06;;;;;;;;;;;;;;;18.40;67.47;101894.41;5241429;28;19913;-68
2023/06/27 02:33:37;;;;;;;;;;;;;;;18.37;68.26;101887.63;5239660;28;19927;-68
2023/06/27 02:36:08;;;;;;;;;;;;;;;18.37;68.32;101884.09;5235874;28;19917;-68
2023/06/27 02:38:39;;;;;;;;;;;;;;;18.36;67.43;101885.94;5305208;27;19977;-67
2023/06/27 02:41:10;;;;;;;;;;;;;;;18.34;69.07;101885.25;5241724;28;20019;-67
2023/06/27 02:43:41;;;;;;;;;;;;;;;18.32;70.10;101876.63;5243532;28;20283;-68
2023/06/27 02:46:13;;;;;;;;;;;;;;;18.31;70.74;101872.31;5244287;28;20385;-67
2023/06/27 02:48:44;;;;;;;;;;;;;;;18.29;70.05;101879.56;5243777;28;20268;-68
2023/06/27 02:51:15;;;;;;;;;;;;;;;18.28;70.84;101887.69;5240784;28;19917;-68
2023/06/27 02:53:47;;;;;;;;;;;;;;;18.28;72.15;101887.69;5239566;28;19973;-68
2023/06/27 02:56:18;;;;;;;;;;;;;;;18.28;68.66;101882.41;5236479;28;19920;-68
2023/06/27 02:58:49;;;;;;;;;;;;;;;18.26;69.38;101876.41;5244682;28;20011;-68
2023/06/27 03:01:20;;;;;;;;;;;;;;;18.22;69.22;101879.38;5240446;28;19909;-67
2023/06/27 03:03:51;;;;;;;;;;;;;;;18.19;68.95;101886.81;5239867;28;19940;-68
2023/06/27 03:06:23;;;;;;;;;;;;;;;18.19;69.65;101892.94;5241366;28;19964;-68
2023/06/27 03:08:54;;;;;;;;;;;;;;;18.17;70.04;101896.72;5242089;28;19928;-68
2023/06/27 03:11:26;;;;;;;;;;;;;;;18.18;70.26;101891.28;5239648;28;19920;-68
2023/06/27 03:13:57;;;;;;;;;;;;;;;18.16;68.77;101890.59;5234370;28;19913;-68
2023/06/27 03:16:28;;;;;;;;;;;;;;;18.14;70.83;101892.56;5231398;28;20003;-68
2023/06/27 03:18:59;;;;;;;;;;;;;;;18.14;70.19;101889.06;5311088;27;20421;-68
2023/06/27 03:21:30;;;;;;;;;;;;;;;18.14;70.18;101894.38;5241076;28;20415;-68
2023/06/27 03:24:01;;;;;;;;;;;;;;;18.12;71.44;101893.72;5312457;27;19912;-67
2023/06/27 03:26:32;;;;;;;;;;;;;;;18.10;72.57;101899.16;5240036;28;19932;-67
2023/06/27 03:29:04;;;;;;;;;;;;;;;18.13;68.93;101892.72;5235944;28;19919;-68
2023/06/27 03:31:35;;;;;;;;;;;;;;;18.11;72.04;101889.41;5234723;28;19915;-68
2023/06/27 03:34:06;;;;;;;;;;;;;;;18.09;71.13;101894.84;5237970;28;19927;-68
2023/06/27 03:36:37;;;;;;;;;;;;;;;18.11;71.05;101890.25;5243216;28;19931;-68
2023/06/27 03:39:09;;;;;;;;;;;;;;;18.06;71.63;101897.81;5241215;28;19959;-69
2023/06/27 03:41:40;;;;;;;;;;;;;;;18.07;71.90;101898.63;5237793;28;19952;-68
2023/06/27 03:44:11;;;;;;;;;;;;;;;18.07;72.46;101904.78;5240072;28;19913;-68
2023/06/27 03:46:42;;;;;;;;;;;;;;;18.08;72.29;101892.38;5237715;28;19981;-68
2023/06/27 03:49:13;;;;;;;;;;;;;;;18.09;72.23;101891.38;5301733;27;19912;-68
2023/06/27 03:51:46;;;;;;;;;;;;;;;18.07;72.01;101894.19;5241834;28;19923;-68
2023/06/27 03:54:17;;;;;;;;;;;;;;;18.05;72.47;101906.75;5243354;28;20163;-67
2023/06/27 03:56:48;;;;;;;;;;;;;;;18.02;73.67;101907.06;5239256;28;19920;-67
2023/06/27 03:59:20;;;;;;;;;;;;;;;18.04;71.67;101906.91;5239730;28;20476;-67
2023/06/27 04:01:51;;;;;;;;;;;;;;;18.02;69.94;101906.22;5236877;28;19913;-68
2023/06/27 04:04:22;;;;;;;;;;;;;;;18.02;72.53;101908.88;5240388;28;19921;-68
2023/06/27 04:06:53;;;;;;;;;;;;;;;18.01;71.74;101908.03;5293600;22;19926;-67
2023/06/27 04:09:25;;;;;;;;;;;;;;;17.96;73.51;101899.72;5309329;28;19973;-67
2023/06/27 04:11:58;;;;;;;;;;;;;;;17.94;71.78;101905.16;5313263;28;19923;-68
2023/06/27 04:14:31;;;;;;;;;;;;;;;17.97;72.85;101898.72;5314938;28;20344;-68
2023/06/27 04:17:02;;;;;;;;;;;;;;;17.94;73.93;101899.88;5313530;28;19911;-69
2023/06/27 04:19:33;;;;;;;;;;;;;;;17.94;73.91;101899.88;5305968;28;20234;-67
2023/06/27 04:22:04;;;;;;;;;;;;;;;17.97;76.24;101901.38;5304097;28;19933;-68
2023/06/27 04:24:36;;;;;;;;;;;;;;;17.93;73.23;101898.22;5305951;28;19923;-67
2023/06/27 04:27:08;;;;;;;;;;;;;;;17.91;75.25;101905.47;5307866;28;20383;-69
2023/06/27 04:29:39;;;;;;;;;;;;;;;17.90;76.52;101902.97;5302386;28;19954;-67
2023/06/27 04:32:11;;;;;;;;;;;;;;;17.87;73.48;101903.28;5305754;28;20368;-68
2023/06/27 04:34:42;;;;;;;;;;;;;;;17.85;75.05;101900.78;5290538;28;19916;-67
2023/06/27 04:37:18;;;;;;;;;;;;;;;17.83;75.95;101905.41;5302261;28;19916;-67
2023/06/27 04:39:49;;;;;;;;;;;;;;;17.83;76.11;101907.22;5303037;28;19923;-69
2023/06/27 04:42:20;;;;;;;;;;;;;;;17.81;73.95;101906.56;5301245;28;20345;-67
2023/06/27 04:44:51;;;;;;;;;;;;;;;17.81;74.43;101909.19;5305947;28;19911;-67
2023/06/27 04:47:23;;;;;;;;;;;;;;;17.82;74.58;101909.03;5303448;28;19944;-69
2023/06/27 04:49:54;;;;;;;;;;;;;;;17.77;75.71;101918.41;5302786;28;19920;-68
2023/06/27 04:52:25;;;;;;;;;;;;;;;17.75;75.63;101916.75;5310971;28;19938;-69
2023/06/27 04:54:56;;;;;;;;;;;;;;;17.79;75.85;101919.09;5300053;28;19916;-68
2023/06/27 04:57:28;;;;;;;;;;;;;;;17.79;76.03;101917.28;5305097;28;20310;-67
2023/06/27 04:59:59;;;;;;;;;;;;;;;17.77;75.44;101921.06;5302046;28;19950;-67
2023/06/27 05:02:30;;;;;;;;;;;;;;;17.78;76.57;101914.81;5306017;28;19919;-67
2023/06/27 05:05:01;;;;;;;;;;;;;;;17.78;76.98;101915.63;5302839;28;20010;-67
2023/06/27 05:07:32;;;;;;;;;;;;;;;17.85;80.39;101916.69;5300207;28;19930;-67
2023/06/27 05:10:04;;;;;;;;;;;;;;;17.88;79.18;101920.84;5305487;28;19912;-69
2023/06/27 05:12:35;;;;;;;;;;;;;;;17.92;80.69;101915.09;5300234;28;19927;-68
2023/06/27 05:15:06;;;;;;;;;;;;;;;17.98;82.18;101925.09;5302659;28;19926;-68
2023/06/27 05:17:37;;;;;;;;;;;;;;;18.07;85.43;101920.72;5311138;28;19943;-67
2023/06/27 05:20:10;;;;;;;;;;;;;;;18.17;84.47;101917.94;5305801;28;19911;-67
2023/06/27 05:22:41;;;;;;;;;;;;;;;18.20;85.28;101918.47;5282652;28;20364;-68
2023/06/27 05:25:12;;;;;;;;;;;;;;;18.28;81.72;101920.34;5296986;28;20115;-67
2023/06/27 05:27:43;;;;;;;;;;;;;;;18.35;85.21;101918.75;5304487;28;19911;-68
2023/06/27 05:30:14;;;;;;;;;;;;;;;18.40;82.08;101920.94;5298693;28;19926;-68
2023/06/27 05:32:46;;;;;;;;;;;;;;;18.44;85.27;101927.59;5305543;28;19999;-68
2023/06/27 05:35:17;;;;;;;;;;;;;;;18.47;90.30;101920.16;5298418;28;20300;-67
2023/06/27 05:37:48;;;;;;;;;;;;;;;18.54;91.33;101916.91;5301419;28;19915;-68
2023/06/27 05:40:19;;;;;;;;;;;;;;;18.60;86.83;101917.13;5301025;28;19914;-68
2023/06/27 05:42:50;;;;;;;;;;;;;;;18.65;90.04;101914.81;5285055;28;19915;-68
2023/06/27 05:45:22;;;;;;;;;;;;;;;18.68;95.04;101914.50;5306442;28;19939;-69
2023/06/27 05:47:53;;;;;;;;;;;;;;;18.76;94.12;101918.22;5306404;28;19911;-67
2023/06/27 05:50:24;;;;;;;;;;;;;;;18.84;93.29;101912.97;5300507;28;20381;-66
2023/06/27 05:52:55;;;;;;;;;;;;;;;18.88;87.08;101907.16;5299300;28;19916;-68
2023/06/27 05:55:26;;;;;;;;;;;;;;;19.01;91.48;101909.38;5302089;28;19923;-68
2023/06/27 05:57:58;;;;;;;;;;;;;;;19.06;93.45;101911.56;5310692;27;19937;-70
2023/06/27 06:00:29;;;;;;;;;;;;;;;19.12;94.58;101908.25;5301368;28;19989;-68
2023/06/27 06:03:00;;;;;;;;;;;;;;;19.14;93.90;101908.94;5308194;28;21199;-69
2023/06/27 06:05:31;;;;;;;;;;;;;;;19.20;92.75;101909.09;5302254;28;19919;-70
2023/06/27 06:08:02;;;;;;;;;;;;;;;19.27;94.99;101911.97;5306096;28;19920;-67
2023/06/27 06:10:34;;;;;;;;;;;;;;;19.33;94.95;101914.00;5300425;28;20520;-67
2023/06/27 06:13:05;;;;;;;;;;;;;;;19.37;93.68;101907.34;5303470;28;20295;-67
2023/06/27 06:15:36;;;;;;;;;;;;;;;19.41;96.74;101905.19;5301828;28;19920;-70
2023/06/27 06:18:07;;;;;;;;;;;;;;;19.53;97.05;101898.59;5303972;28;19915;-69
2023/06/27 06:20:38;;;;;;;;;;;;;;;19.62;94.22;101899.44;5301658;28;19937;-67
2023/06/27 06:23:10;;;;;;;;;;;;;;;19.72;98.27;101910.78;5302458;28;19912;-69
2023/06/27 06:25:41;;;;;;;;;;;;;;;19.85;92.29;101919.13;5304906;28;19922;-68
2023/06/27 06:28:12;;;;;;;;;;;;;;;19.92;81.76;101911.28;5300748;28;19976;-68
2023/06/27 06:30:43;;;;;;;;;;;;;;;20.04;90.76;101911.78;5304461;28;19916;-69
2023/06/27 06:33:15;;;;;;;;;;;;;;;20.14;91.24;101915.13;5303340;28;19961;-68
2023/06/27 06:35:46;;;;;;;;;;;;;;;20.22;90.94;101920.44;5310141;28;19916;-68
2023/06/27 06:38:17;;;;;;;;;;;;;;;20.42;87.49;101920.94;5303301;28;19920;-68
2023/06/27 06:40:48;;;;;;;;;;;;;;;20.55;83.04;101918.59;5306016;28;20368;-69
2023/06/27 06:43:22;;;;;;;;;;;;;;;20.65;87.86;101931.72;5305064;28;20254;-66
2023/06/27 06:45:54;;;;;;;;;;;;;;;20.80;87.41;101934.53;5305471;28;19912;-68
2023/06/27 06:48:25;;;;;;;;;;;;;;;20.92;88.18;101937.66;5301261;28;19915;-67
2023/06/27 06:50:56;;;;;;;;;;;;;;;21.02;85.35;101938.25;5301073;28;20311;-68
2023/06/27 06:53:27;;;;;;;;;;;;;;;21.17;84.60;101931.22;5310491;27;19998;-68
2023/06/27 06:55:58;;;;;;;;;;;;;;;21.34;85.15;101922.16;5305588;28;19920;-67
2023/06/27 06:58:30;;;;;;;;;;;;;;;21.51;81.78;101932.72;5301195;28;20429;-67
2023/06/27 07:01:01;;;;;;;;;;;;;;;21.43;82.85;101912.28;5306925;28;19918;-67
2023/06/27 07:03:33;;;;;;;;;;;;;;;21.73;80.94;101937.25;5301254;28;19908;-68
2023/06/27 07:06:04;;;;;;;;;;;;;;;21.93;74.44;101931.44;5298995;28;19912;-68
2023/06/27 07:08:35;;;;;;;;;;;;;;;22.09;76.77;101937.50;5304106;28;19988;-69
2023/06/27 07:11:07;;;;;;;;;;;;;;;22.17;76.03;101933.16;5304051;28;19941;-71
2023/06/27 07:13:38;;;;;;;;;;;;;;;22.27;74.40;101939.03;5297176;28;19924;-67
2023/06/27 07:16:09;;;;;;;;;;;;;;;22.38;71.91;101938.59;5296418;28;19946;-67
2023/06/27 07:18:41;;;;;;;;;;;;;;;22.55;71.57;101941.97;5304256;28;20724;-68
2023/06/27 07:21:14;;;;;;;;;;;;;;;22.66;69.24;101949.53;5294778;27;19934;-69
2023/06/27 07:23:45;;;;;;;;;;;;;;;22.87;69.45;101935.44;5303854;28;19923;-69
2023/06/27 07:26:16;;;;;;;;;;;;;;;23.08;68.88;101941.91;5303423;28;19930;-68
2023/06/27 07:28:48;;;;;;;;;;;;;;;23.16;66.08;101933.78;5304965;28;20359;-69
2023/06/27 07:31:19;;;;;;;;;;;;;;;23.24;64.72;101931.81;5305024;28;19912;-66
2023/06/27 07:33:50;;;;;;;;;;;;;;;23.50;62.64;101935.84;5301260;28;20017;-67
2023/06/27 07:36:21;;;;;;;;;;;;;;;23.62;57.01;101930.81;5303429;28;19915;-70
2023/06/27 07:38:52;;;;;;;;;;;;;;;23.76;58.60;101927.28;5301372;28;20463;-67
2023/06/27 07:41:24;;;;;;;;;;;;;;;23.83;56.21;101936.22;5305523;28;20299;-67
2023/06/27 07:43:55;;;;;;;;;;;;;;;23.87;54.75;101931.31;5302959;28;19920;-68
2023/06/27 07:46:27;;;;;;;;;;;;;;;23.95;57.45;101929.31;5310410;28;19927;-69
2023/06/27 07:48:59;;;;;;;;;;;;;;;24.04;57.76;101933.50;5307842;27;20003;-68
2023/06/27 07:51:31;;;;;;;;;;;;;;;24.15;56.72;101926.00;5283574;28;19920;-66
2023/06/27 07:54:03;;;;;;;;;;;;;;;24.24;56.07;101922.13;5304921;28;19955;-67
2023/06/27 07:56:34;;;;;;;;;;;;;;;24.28;55.29;101928.75;5301375;28;19969;-67
2023/06/27 07:59:05;;;;;;;;;;;;;;;24.30;52.21;101926.72;5301472;28;19980;-68
2023/06/27 08:01:36;;;;;;;;;;;;;;;24.38;52.18;101923.06;5304595;28;20277;-67
2023/06/27 08:04:08;;;;;;;;;;;;;;;24.47;53.82;101930.81;5305583;28;20372;-68
2023/06/27 08:06:39;;;;;;;;;;;;;;;24.60;52.34;101937.28;5306339;28;19919;-66
2023/06/27 08:09:10;;;;;;;;;;;;;;;24.71;52.76;101929.50;5299486;28;19968;-69
2023/06/27 08:11:41;;;;;;;;;;;;;;;24.76;53.20;101926.22;5303060;28;19916;-67
2023/06/27 08:14:12;;;;;;;;;;;;;;;24.74;50.10;101931.78;5300711;28;19916;-67
2023/06/27 08:16:43;;;;;;;;;;;;;;;24.78;52.37;101928.72;5303350;28;19912;-68
2023/06/27 08:19:15;;;;;;;;;;;;;;;24.81;51.10;101926.44;5302771;28;20006;-67
2023/06/27 08:21:46;;;;;;;;;;;;;;;24.84;49.18;101925.25;5305069;28;19918;-68
2023/06/27 08:24:17;;;;;;;;;;;;;;;24.92;49.21;101922.38;5305404;28;19961;-67
2023/06/27 08:26:49;;;;;;;;;;;;;;;25.10;47.08;101928.06;5305461;28;20360;-68
2023/06/27 08:29:21;;;;;;;;;;;;;;;25.19;48.12;101923.34;5304007;28;19918;-69
2023/06/27 08:31:58;;;;;;;;;;;;;;;25.18;47.01;101919.84;5303901;28;19915;-69
2023/06/27 08:34:31;;;;;;;;;;;;;;;25.23;48.08;101927.31;5305645;28;19959;-67
2023/06/27 08:37:03;;;;;;;;;;;;;;;25.23;46.68;101925.47;5303453;28;19912;-71
2023/06/27 08:39:34;;;;;;;;;;;;;;;25.24;47.83;101921.75;5291050;28;20669;-67
2023/06/27 08:42:05;;;;;;;;;;;;;;;25.33;47.62;101924.25;5303132;28;20349;-70
2023/06/27 08:44:37;;;;;;;;;;;;;;;25.32;46.85;101925.28;5300191;28;19931;-67
2023/06/27 08:47:08;;;;;;;;;;;;;;;25.40;47.88;101919.72;5304181;28;19912;-67
2023/06/27 08:49:40;;;;;;;;;;;;;;;25.31;46.90;101916.41;5304183;28;19968;-67
2023/06/27 08:52:13;;;;;;;;;;;;;;;25.25;47.42;101919.88;5303300;28;20280;-69
2023/06/27 08:54:50;;;;;;;;;;;;;;;25.29;47.62;101907.72;5298547;28;19920;-66
2023/06/27 08:57:24;;;;;;;;;;;;;;;25.21;46.40;101911.41;5304257;28;19998;-68
2023/06/27 08:59:56;;;;;;;;;;;;;;;25.10;45.88;101914.66;5301813;28;19994;-67
2023/06/27 09:02:27;;;;;;;;;;;;;;;24.97;47.45;101918.09;5301402;28;20006;-67
2023/06/27 09:04:59;;;;;;;;;;;;;;;24.88;47.74;101911.22;5299690;28;20342;-69
2023/06/27 09:07:32;;;;;;;;;;;;;;;24.84;45.25;101915.34;5303885;28;19920;-70
2023/06/27 09:10:03;;;;;;;;;;;;;;;24.82;47.27;101914.72;5305199;28;19915;-68
2023/06/27 09:12:35;;;;;;;;;;;;;;;24.76;47.64;101918.19;5301137;28;19965;-67
2023/06/27 09:15:07;;;;;;;;;;;;;;;24.76;45.90;101916.31;5302450;28;19916;-68
2023/06/27 09:17:38;;;;;;;;;;;;;;;24.80;45.32;101916.75;5302812;28;19915;-68
2023/06/27 09:20:11;;;;;;;;;;;;;;;24.87;45.92;101912.25;5302733;28;20281;-67
2023/06/27 09:22:43;;;;;;;;;;;;;;;24.87;45.25;101911.44;5305685;28;19966;-67
2023/06/27 09:25:15;;;;;;;;;;;;;;;24.83;42.23;101916.38;5299213;28;19947;-66
2023/06/27 09:27:47;;;;;;;;;;;;;;;24.84;42.99;101912.66;5302504;28;19931;-68
2023/06/27 09:30:18;;;;;;;;;;;;;;;24.90;43.87;101911.88;5308624;28;19919;-67
2023/06/27 09:32:55;;;;;;;;;;;;;;;24.98;42.91;101911.69;5306518;28;19911;-68
2023/06/27 09:35:27;;;;;;;;;;;;;;;25.10;42.39;101914.66;5303041;28;20357;-67
2023/06/27 09:38:05;;;;;;;;;;;;;;;25.22;41.38;101920.28;5303451;28;19937;-67
2023/06/27 09:40:36;;;;;;;;;;;;;;;25.34;41.93;101913.28;5307038;28;20006;-67
2023/06/27 09:43:08;;;;;;;;;;;;;;;25.55;42.17;101915.00;5305145;28;20041;-69
2023/06/27 09:45:39;;;;;;;;;;;;;;;25.68;41.71;101919.56;5283983;28;19915;-67
2023/06/27 09:48:10;;;;;;;;;;;;;;;25.70;39.18;101923.69;5305735;28;20273;-67
2023/06/27 09:50:42;;;;;;;;;;;;;;;25.75;38.41;101930.31;5290069;28;20022;-68
2023/06/27 09:53:13;;;;;;;;;;;;;;;25.83;39.74;101933.66;5305026;28;19931;-68
2023/06/27 09:55:47;;;;;;;;;;;;;;;25.95;39.61;101937.41;5297517;28;20018;-67
2023/06/27 09:58:25;;;;;;;;;;;;;;;26.05;38.96;101931.59;5286051;28;19951;-67
2023/06/27 10:01:04;;;;;;;;;;;;;;;26.10;38.25;101921.09;5306038;28;20002;-67
2023/06/27 10:03:36;;;;;;;;;;;;;;;26.16;38.43;101930.16;5304817;27;19915;-68
2023/06/27 10:06:07;;;;;;;;;;;;;;;26.18;37.20;101925.44;5304505;28;20294;-69
2023/06/27 10:08:38;;;;;;;;;;;;;;;26.32;38.16;101920.84;5304214;28;20671;-69
2023/06/27 10:11:09;;;;;;;;;;;;;;;26.48;37.61;101925.00;5305783;28;19922;-70
2023/06/27 10:13:41;;;;;;;;;;;;;;;26.61;37.68;101925.81;5306522;28;19967;-68
2023/06/27 10:16:12;;;;;;;;;;;;;;;26.96;36.21;101921.97;5306406;28;19923;-69
2023/06/27 10:18:44;;;;;;;;;;;;;;;27.23;35.77;101928.09;5301516;28;19967;-69
2023/06/27 10:21:16;;;;;;;;;;;;;;;27.45;34.43;101925.91;5307645;28;20330;-68
2023/06/27 10:23:49;;;;;;;;;;;;;;;27.46;36.83;101928.38;5308060;28;19919;-67
2023/06/27 10:26:20;;;;;;;;;;;;;;;27.40;35.41;101927.38;5300928;28;19915;-69
2023/06/27 10:28:51;;;;;;;;;;;;;;;27.24;34.98;101922.50;5307203;28;19918;-68
2023/06/27 10:31:49;;;;;;;;;;;;;;;27.21;35.82;101927.50;5303609;27;19938;-69
2023/06/27 10:34:21;;;;;;;;;;;;;;;27.20;36.37;101923.13;5306919;28;20030;-69
2023/06/27 10:36:52;;;;;;;;;;;;;;;27.10;36.52;101935.16;5306126;28;19915;-69
2023/06/27 10:39:34;;;;;;;;;;;;;;;27.02;34.59;101937.28;5298772;28;19961;-69
2023/06/27 10:42:06;;;;;;;;;;;;;;;26.97;35.74;101929.00;5301059;28;19915;-69
2023/06/27 10:44:56;;;;;;;;;;;;;;;27.00;35.88;101923.19;5307433;28;20265;-69
2023/06/27 10:47:29;;;;;;;;;;;;;;;27.14;35.48;101925.66;5305132;28;19923;-67
2023/06/27 10:50:04;;;;;;;;;;;;;;;27.04;35.90;101914.47;5302229;28;19916;-69
2023/06/27 10:52:35;;;;;;;;;;;;;;;26.93;34.60;101925.91;5300160;28;19916;-69
2023/06/27 10:55:15;;;;;;;;;;;;;;;26.77;34.71;101919.13;5302408;28;19923;-69
2023/06/27 10:57:50;;;;;;;;;;;;;;;26.75;36.25;101925.78;5297376;28;20049;-69
2023/06/27 11:00:24;;;;;;;;;;;;;;;26.73;36.36;101917.91;5302530;27;20380;-70
2023/06/27 11:02:56;;;;;;;;;;;;;;;26.62;35.22;101911.31;5305183;28;19988;-69
2023/06/27 11:05:45;;;;;;;;;;;;;;;26.75;34.65;101913.16;5300143;28;20318;-69
2023/06/27 11:08:17;;;;;;;;;;;;;;;26.98;34.67;101930.66;5298060;28;19919;-69
2023/06/27 11:10:50;;;;;;;;;;;;;;;27.07;34.89;101926.69;5307091;28;19960;-67
2023/06/27 11:13:22;;;;;;;;;;;;;;;27.13;34.35;101926.69;5304023;28;20384;-68
2023/06/27 11:15:54;;;;;;;;;;;;;;;27.31;34.58;101931.34;5303093;28;19927;-69
2023/06/27 11:18:25;;;;;;;;;;;;;;;27.24;30.33;101919.81;5299630;28;19908;-70
2023/06/27 11:20:57;;;;;;;;;;;;;;;27.47;32.83;101913.06;5303593;28;20292;-68
2023/06/27 11:23:29;;;;;;;;;;;;;;;27.61;32.06;101920.00;5304110;28;19916;-68
2023/06/27 11:26:00;;;;;;;;;;;;;;;27.76;33.39;101919.72;5303967;28;19916;-68
2023/06/27 11:28:31;;;;;;;;;;;;;;;27.92;30.54;101918.34;5307706;28;20313;-69
2023/06/27 11:31:03;;;;;;;;;;;;;;;28.07;32.28;101918.84;5306876;28;20200;-69
2023/06/27 11:33:34;;;;;;;;;;;;;;;28.33;32.02;101918.59;5304773;28;19918;-70
2023/06/27 11:36:05;;;;;;;;;;;;;;;28.56;32.81;101923.41;5305726;28;19915;-70
2023/06/27 11:38:36;;;;;;;;;;;;;;;28.52;33.60;101919.50;5303045;28;19939;-70
2023/06/27 11:41:08;;;;;;;;;;;;;;;28.34;32.57;101916.75;5307406;28;20380;-68
2023/06/27 11:43:44;;;;;;;;;;;;;;;28.26;34.21;101915.19;5306832;28;20288;-68
2023/06/27 11:46:19;;;;;;;;;;;;;;;28.29;33.69;101914.72;5298038;28;19919;-69
2023/06/27 11:48:50;;;;;;;;;;;;;;;28.38;32.38;101917.19;5299946;28;19918;-70
2023/06/27 11:51:21;;;;;;;;;;;;;;;28.55;32.35;101912.84;5299236;28;20105;-70
2023/06/27 11:53:54;;;;;;;;;;;;;;;28.74;31.88;101913.66;5296086;28;20280;-67
2023/06/27 11:56:25;;;;;;;;;;;;;;;28.74;32.23;101909.09;5303334;28;19931;-69
2023/06/27 11:58:59;;;;;;;;;;;;;;;28.53;32.62;101920.34;5303492;28;19916;-67
2023/06/27 12:01:33;;;;;;;;;;;;;;;28.45;32.67;101923.28;5305166;28;19912;-68
2023/06/27 12:04:11;;;;;;;;;;;;;;;28.42;31.85;101921.06;5301568;28;19916;-69
2023/06/27 12:06:43;;;;;;;;;;;;;;;28.28;33.39;101909.56;5302927;28;19916;-72
2023/06/27 12:09:18;;;;;;;;;;;;;;;28.15;34.26;101921.28;5303325;28;19924;-70
2023/06/27 12:11:50;;;;;;;;;;;;;;;28.12;32.33;101921.72;5282961;28;19961;-68
2023/06/27 12:14:22;;;;;;;;;;;;;;;28.23;33.18;101912.09;5308240;28;20376;-70
2023/06/27 12:16:53;;;;;;;;;;;;;;;28.33;32.51;101915.91;5298825;28;19918;-67
2023/06/27 12:19:24;;;;;;;;;;;;;;;28.39;32.53;101910.72;5305620;28;20398;-69
2023/06/27 12:21:58;;;;;;;;;;;;;;;28.33;32.73;101896.22;5309679;27;19920;-68
2023/06/27 12:24:29;;;;;;;;;;;;;;;28.23;32.87;101902.16;5300309;28;20474;-69
2023/06/27 12:27:00;;;;;;;;;;;;;;;28.11;33.26;101901.22;5308050;28;20010;-69
2023/06/27 12:29:32;;;;;;;;;;;;;;;27.90;33.30;101907.81;5306810;28;19919;-69
2023/06/27 12:32:03;;;;;;;;;;;;;;;27.68;33.99;101898.44;5301489;28;20003;-67
2023/06/27 12:34:34;;;;;;;;;;;;;;;27.32;33.08;101907.97;5301426;28;19916;-68
2023/06/27 12:37:06;;;;;;;;;;;;;;;27.20;33.24;101915.06;5300795;28;19957;-68
2023/06/27 12:39:37;;;;;;;;;;;;;;;27.13;33.50;101912.44;5302564;28;19937;-69
2023/06/27 12:42:08;;;;;;;;;;;;;;;27.03;33.84;101901.25;5300231;28;19933;-68
2023/06/27 12:44:39;;;;;;;;;;;;;;;27.15;34.02;101902.25;5303218;28;19911;-70
2023/06/27 12:47:11;;;;;;;;;;;;;;;27.20;34.14;101894.38;5310079;28;20299;-69
2023/06/27 12:49:42;;;;;;;;;;;;;;;27.19;34.33;101889.22;5300743;28;19941;-70
2023/06/27 12:52:13;;;;;;;;;;;;;;;27.13;34.65;101890.91;5296685;28;19926;-69
2023/06/27 12:54:44;;;;;;;;;;;;;;;27.14;34.27;101887.16;5298702;28;19912;-69
2023/06/27 12:57:15;;;;;;;;;;;;;;;27.25;34.83;101885.66;5303297;28;20365;-69
2023/06/27 12:59:46;;;;;;;;;;;;;;;27.61;35.44;101885.00;5306272;28;20002;-70